createdAt,value
2022-10-21T00:00:58.426Z,24.37
2022-10-21T00:03:27.509Z,28.50
2022-10-21T00:05:56.177Z,27.87
2022-10-21T00:08:24.612Z,34.20
2022-10-21T00:10:55.233Z,34.80
2022-10-21T00:13:23.682Z,34.17
2022-10-21T00:16:02.587Z,33.13
2022-10-21T00:18:31.293Z,32.07
2022-10-21T00:20:59.314Z,33.93
2022-10-21T00:23:27.939Z,36.00
2022-10-21T00:26:00.903Z,32.47
2022-10-21T00:28:29.349Z,30.23
2022-10-21T00:30:58.550Z,26.40
2022-10-21T00:33:27.787Z,29.03
2022-10-21T00:35:57.388Z,29.73
2022-10-21T00:38:25.683Z,30.73
2022-10-21T00:40:53.791Z,24.13
2022-10-21T00:43:23.153Z,23.07
2022-10-21T00:45:53.640Z,22.27
2022-10-21T00:48:28.339Z,21.67
2022-10-21T00:51:00.970Z,18.73
2022-10-21T00:53:29.588Z,18.87
2022-10-21T00:56:01.320Z,17.73
2022-10-21T00:58:33.088Z,16.73
2022-10-21T01:01:03.407Z,16.67
2022-10-21T01:03:32.949Z,16.43
2022-10-21T01:06:06.992Z,17.00
2022-10-21T01:08:35.913Z,15.73
2022-10-21T01:11:04.897Z,16.53
2022-10-21T01:13:42.093Z,16.50
2022-10-21T01:16:17.867Z,15.50
2022-10-21T01:18:53.331Z,17.40
2022-10-21T01:21:32.523Z,16.83
2022-10-21T01:24:42.545Z,17.27
2022-10-21T01:27:27.171Z,16.83
2022-10-21T01:30:26.660Z,17.23
2022-10-21T01:33:11.953Z,17.23
2022-10-21T01:35:44.796Z,16.70
2022-10-21T01:38:21.656Z,17.20
2022-10-21T01:40:57.248Z,17.80
2022-10-21T01:43:35.214Z,17.27
2022-10-21T01:46:07.857Z,18.37
2022-10-21T01:48:41.211Z,18.83
2022-10-21T01:51:11.128Z,18.60
2022-10-21T01:53:44.888Z,21.37
2022-10-21T01:56:14.732Z,21.73
2022-10-21T01:58:46.340Z,21.60
2022-10-21T02:01:18.776Z,23.17
2022-10-21T02:03:50.339Z,27.00
2022-10-21T02:06:18.461Z,31.43
2022-10-21T02:08:46.578Z,35.27
2022-10-21T02:11:18.164Z,30.33
2022-10-21T02:13:54.807Z,27.90
2022-10-21T02:16:29.058Z,26.33
2022-10-21T02:18:57.535Z,24.30
2022-10-21T02:21:29.422Z,20.27
2022-10-21T02:24:02.588Z,18.70
2022-10-21T02:26:30.572Z,18.23
2022-10-21T02:29:00.212Z,17.03
2022-10-21T02:31:44.700Z,16.30
2022-10-21T02:34:30.226Z,16.27
2022-10-21T02:37:04.376Z,15.03
2022-10-21T02:39:39.766Z,15.83
2022-10-21T02:42:12.111Z,16.80
2022-10-21T02:44:40.128Z,16.90
2022-10-21T02:49:42.298Z,16.87
2022-10-21T02:52:10.295Z,15.70
2022-10-21T02:54:38.256Z,17.00
2022-10-21T02:57:06.217Z,16.73
2022-10-21T02:59:34.183Z,16.87
2022-10-21T03:02:02.120Z,17.27
2022-10-21T03:04:31.435Z,15.77
2022-10-21T03:06:59.341Z,17.70
2022-10-21T03:09:27.277Z,17.80
2022-10-21T03:11:55.194Z,17.90
2022-10-21T03:14:23.127Z,16.87
2022-10-21T03:16:51.081Z,26.80
2022-10-21T03:19:19.047Z,24.67
2022-10-21T03:21:48.341Z,24.20
2022-10-21T03:24:28.039Z,20.27
2022-10-21T03:26:56.790Z,17.33
2022-10-21T03:29:24.995Z,17.63
2022-10-21T03:31:53.035Z,17.67
2022-10-21T03:34:20.980Z,17.90
2022-10-21T03:36:50.262Z,16.13
2022-10-21T03:39:18.201Z,16.43
2022-10-21T03:41:46.149Z,16.70
2022-10-21T03:44:14.104Z,17.10
2022-10-21T03:46:42.067Z,16.67
2022-10-21T03:49:18.419Z,15.47
2022-10-21T03:51:50.892Z,16.67
2022-10-21T03:54:19.579Z,16.90
2022-10-21T03:56:47.687Z,16.70
2022-10-21T03:59:15.644Z,16.83
2022-10-21T04:01:43.909Z,17.23
2022-10-21T04:04:11.902Z,17.20
2022-10-21T04:06:39.850Z,16.97
2022-10-21T04:09:10.087Z,18.23
2022-10-21T04:11:38.133Z,17.43
2022-10-21T04:14:06.127Z,17.93
2022-10-21T04:16:34.553Z,17.87
2022-10-21T04:19:03.236Z,17.70
2022-10-21T04:21:31.157Z,17.50
2022-10-21T04:23:59.151Z,17.97
2022-10-21T04:26:28.463Z,17.77
2022-10-21T04:28:56.428Z,17.00
2022-10-21T04:31:27.405Z,18.03
2022-10-21T04:33:57.650Z,18.87
2022-10-21T04:36:25.622Z,19.00
2022-10-21T04:38:53.531Z,17.90
2022-10-21T04:41:21.494Z,18.70
2022-10-21T04:43:50.802Z,18.10
2022-10-21T04:46:20.817Z,18.83
2022-10-21T04:48:48.941Z,17.37
2022-10-21T04:51:16.880Z,18.30
2022-10-21T04:53:44.882Z,18.03
2022-10-21T04:56:12.864Z,19.03
2022-10-21T04:58:40.842Z,19.00
2022-10-21T05:01:10.271Z,19.47
2022-10-21T05:03:39.099Z,17.53
2022-10-21T05:06:07.431Z,19.50
2022-10-21T05:08:35.407Z,21.23
2022-10-21T05:11:04.188Z,20.50
2022-10-21T05:13:33.591Z,20.70
2022-10-21T05:16:02.811Z,21.53
2022-10-21T05:18:32.338Z,20.93
2022-10-21T05:21:00.348Z,20.40
2022-10-21T05:23:28.815Z,19.50
2022-10-21T05:25:56.778Z,20.00
2022-10-21T05:28:25.169Z,19.43
2022-10-21T05:30:54.339Z,20.20
2022-10-21T05:33:22.312Z,20.63
2022-10-21T05:35:58.816Z,19.07
2022-10-21T05:38:26.762Z,19.23
2022-10-21T05:40:54.733Z,20.20
2022-10-21T05:43:22.831Z,19.60
2022-10-21T05:45:50.783Z,19.80
2022-10-21T05:48:19.264Z,18.73
2022-10-21T05:50:48.256Z,20.33
2022-10-21T05:53:17.525Z,19.30
2022-10-21T05:55:45.545Z,19.60
2022-10-21T05:58:13.445Z,19.13
2022-10-21T06:00:42.387Z,19.60
2022-10-21T06:03:10.376Z,21.27
2022-10-21T06:05:42.322Z,21.13
2022-10-21T06:08:10.271Z,22.17
2022-10-21T06:10:39.647Z,22.87
2022-10-21T06:13:07.563Z,22.20
2022-10-21T06:15:35.501Z,20.27
2022-10-21T06:18:03.482Z,20.77
2022-10-21T06:20:31.908Z,22.00
2022-10-21T06:23:00.709Z,22.80
2022-10-21T06:25:28.805Z,21.17
2022-10-21T06:27:58.087Z,21.50
2022-10-21T06:30:26.041Z,22.87
2022-10-21T06:32:54.010Z,20.37
2022-10-21T06:35:21.942Z,21.43
2022-10-21T06:37:49.886Z,20.83
2022-10-21T06:40:18.054Z,20.23
2022-10-21T06:42:45.990Z,20.33
2022-10-21T06:45:15.823Z,20.53
2022-10-21T06:47:43.753Z,21.43
2022-10-21T06:50:13.843Z,20.27
2022-10-21T06:52:41.884Z,20.83
2022-10-21T06:55:10.189Z,20.67
2022-10-21T06:57:38.279Z,20.93
2022-10-21T07:00:07.988Z,21.97
2022-10-21T07:02:37.472Z,20.73
2022-10-21T07:05:06.376Z,20.13
2022-10-21T07:07:34.544Z,19.70
2022-10-21T07:10:02.602Z,20.40
2022-10-21T07:12:31.858Z,20.13
2022-10-21T07:14:59.848Z,21.10
2022-10-21T07:17:30.725Z,21.77
2022-10-21T07:20:00.623Z,20.30
2022-10-21T07:22:28.821Z,20.03
2022-10-21T07:24:56.834Z,20.63
2022-10-21T07:27:24.898Z,20.40
2022-10-21T07:29:52.809Z,19.60
2022-10-21T07:32:20.864Z,19.80
2022-10-21T07:34:48.849Z,20.43
2022-10-21T07:37:18.174Z,19.40
2022-10-21T07:39:46.165Z,20.20
2022-10-21T07:42:14.104Z,19.67
2022-10-21T07:44:42.140Z,19.83
2022-10-21T07:47:10.140Z,19.70
2022-10-21T07:49:38.209Z,19.87
2022-10-21T07:52:06.327Z,21.27
2022-10-21T07:54:35.748Z,20.20
2022-10-21T07:57:03.896Z,20.60
2022-10-21T07:59:31.911Z,19.00
2022-10-21T08:01:59.943Z,18.23
2022-10-21T08:04:31.983Z,19.00
2022-10-21T08:07:00.443Z,18.03
2022-10-21T08:09:28.482Z,18.30
2022-10-21T08:11:58.907Z,18.97
2022-10-21T08:14:26.909Z,17.50
2022-10-21T08:16:55.508Z,19.27
2022-10-21T08:19:29.522Z,17.67
2022-10-21T08:21:58.662Z,17.07
2022-10-21T08:24:27.044Z,16.63
2022-10-21T08:26:55.284Z,16.63
2022-10-21T08:29:24.720Z,16.33
2022-10-21T08:31:52.741Z,16.50
2022-10-21T08:34:20.748Z,17.33
2022-10-21T08:36:48.707Z,17.43
2022-10-21T08:39:16.678Z,17.83
2022-10-21T08:42:17.324Z,17.07
2022-10-21T08:44:53.872Z,16.20
2022-10-21T08:47:31.152Z,15.87
2022-10-21T08:50:03.468Z,15.90
2022-10-21T08:52:39.565Z,16.00
2022-10-21T08:55:13.958Z,14.73
2022-10-21T08:57:42.255Z,15.77
2022-10-21T09:00:18.416Z,14.67
2022-10-21T09:03:00.692Z,14.80
2022-10-21T09:05:43.064Z,14.80
2022-10-21T09:08:25.308Z,14.60
2022-10-21T09:11:03.432Z,14.73
2022-10-21T09:13:51.403Z,14.80
2022-10-21T09:16:26.616Z,16.10
2022-10-21T09:19:06.495Z,17.17
2022-10-21T09:21:45.968Z,17.10
2022-10-21T09:24:26.721Z,18.47
2022-10-21T09:26:55.643Z,19.40
2022-10-21T09:29:31.435Z,20.63
2022-10-21T09:32:11.773Z,20.93
2022-10-21T09:34:52.070Z,20.80
2022-10-21T09:37:26.191Z,19.80
2022-10-21T09:40:04.349Z,18.50
2022-10-21T09:42:48.515Z,19.97
2022-10-21T09:45:24.075Z,19.10
2022-10-21T09:47:58.058Z,19.10
2022-10-21T09:50:27.816Z,17.70
2022-10-21T09:53:02.495Z,17.70
2022-10-21T09:55:31.446Z,19.33
2022-10-21T09:58:01.779Z,17.97
2022-10-21T10:00:47.758Z,17.67
2022-10-21T10:06:08.726Z,18.07
2022-10-21T10:08:39.351Z,17.23
2022-10-21T10:11:18.421Z,16.83
2022-10-21T10:13:48.540Z,17.13
2022-10-21T10:16:23.774Z,16.90
2022-10-21T10:18:53.671Z,16.20
2022-10-21T10:21:23.731Z,15.90
2022-10-21T10:23:54.268Z,16.50
2022-10-21T10:26:29.987Z,16.13
2022-10-21T10:29:00.173Z,16.93
2022-10-21T10:31:32.529Z,16.40
2022-10-21T10:34:04.052Z,16.70
2022-10-21T10:36:36.917Z,15.73
2022-10-21T10:39:08.759Z,17.73
2022-10-21T10:41:39.648Z,14.97
2022-10-21T10:44:19.774Z,15.40
2022-10-21T10:46:55.856Z,15.63
2022-10-21T10:49:24.940Z,15.40
2022-10-21T10:52:08.276Z,13.17
2022-10-21T10:54:37.078Z,12.83
2022-10-21T10:57:09.742Z,12.97
2022-10-21T10:59:42.076Z,13.13
2022-10-21T11:02:23.188Z,13.93
2022-10-21T11:05:04.319Z,12.83
2022-10-21T11:07:38.879Z,13.07
2022-10-21T11:10:14.422Z,12.27
2022-10-21T11:12:42.399Z,12.03
2022-10-21T11:15:16.319Z,11.80
2022-10-21T11:18:07.403Z,12.20
2022-10-21T11:20:58.044Z,11.70
2022-10-21T11:23:56.945Z,12.20
2022-10-21T11:26:36.691Z,11.60
2022-10-21T11:29:14.771Z,11.40
2022-10-21T11:32:10.231Z,11.90
2022-10-21T11:34:50.462Z,11.97
2022-10-21T11:37:28.627Z,12.60
2022-10-21T11:40:02.387Z,12.70
2022-10-21T11:42:36.241Z,12.10
2022-10-21T11:45:29.639Z,11.93
2022-10-21T11:48:05.326Z,13.47
2022-10-21T11:50:41.615Z,12.67
2022-10-21T11:53:21.743Z,12.87
2022-10-21T11:55:59.559Z,12.10
2022-10-21T11:58:38.423Z,12.53
2022-10-21T12:01:23.960Z,12.33
2022-10-21T12:04:30.675Z,11.53
2022-10-21T12:07:11.392Z,11.27
2022-10-21T12:09:46.409Z,13.00
2022-10-21T12:12:19.340Z,12.93
2022-10-21T12:14:51.017Z,12.13
2022-10-21T12:17:21.764Z,11.93
2022-10-21T12:19:55.757Z,12.20
2022-10-21T12:22:25.390Z,12.30
2022-10-21T12:25:01.844Z,12.70
2022-10-21T12:27:36.238Z,12.00
2022-10-21T12:30:12.982Z,11.90
2022-10-21T12:32:48.697Z,12.07
2022-10-21T12:35:22.588Z,12.27
2022-10-21T12:38:19.774Z,12.40
2022-10-21T12:40:48.616Z,11.98
2022-10-21T12:43:22.525Z,12.38
2022-10-21T12:46:07.803Z,12.70
2022-10-21T12:48:39.360Z,12.77
2022-10-21T12:51:17.678Z,12.77
2022-10-21T12:56:35.255Z,12.20
2022-10-21T12:59:07.663Z,12.27
2022-10-21T13:01:42.853Z,12.40
2022-10-21T13:04:45.735Z,10.80
2022-10-21T13:08:03.625Z,10.95
2022-10-21T13:10:31.588Z,11.77
2022-10-21T13:13:31.896Z,11.63
2022-10-21T13:16:22.950Z,12.05
2022-10-21T13:18:59.814Z,13.57
2022-10-21T13:21:34.768Z,11.88
2022-10-21T13:24:22.235Z,11.65
2022-10-21T13:26:52.759Z,12.23
2022-10-21T13:29:33.821Z,12.45
2022-10-21T13:32:27.043Z,12.93
2022-10-21T13:35:03.133Z,12.52
2022-10-21T13:37:34.682Z,12.68
2022-10-21T13:40:05.445Z,12.35
2022-10-21T13:42:37.946Z,11.57
2022-10-21T13:45:16.053Z,12.23
2022-10-21T13:47:45.920Z,11.85
2022-10-21T13:50:19.589Z,12.70
2022-10-21T13:52:47.812Z,12.77
2022-10-21T13:55:21.935Z,12.60
2022-10-21T13:57:51.736Z,12.35
2022-10-21T14:00:23.859Z,12.10
2022-10-21T14:02:54.851Z,12.80
2022-10-21T14:05:31.039Z,11.98
2022-10-21T14:07:59.074Z,11.83
2022-10-21T14:10:28.811Z,11.95
2022-10-21T14:15:39.070Z,12.23
2022-10-21T14:18:09.029Z,11.65
2022-10-21T14:20:38.935Z,11.30
2022-10-21T14:23:09.579Z,10.75
2022-10-21T14:25:37.647Z,11.32
2022-10-21T14:28:06.103Z,9.88
2022-10-21T14:30:37.146Z,10.05
2022-10-21T14:33:06.445Z,9.35
2022-10-21T14:35:35.963Z,8.63
2022-10-21T14:38:05.484Z,8.97
2022-10-21T14:40:35.850Z,8.60
2022-10-21T14:43:08.589Z,8.77
2022-10-21T14:45:39.291Z,8.17
2022-10-21T14:48:12.420Z,8.67
2022-10-21T14:50:42.974Z,8.33
2022-10-21T14:53:17.763Z,8.60
2022-10-21T14:55:47.444Z,9.23
2022-10-21T14:58:23.002Z,11.55
2022-10-21T15:00:56.058Z,12.15
2022-10-21T15:03:41.472Z,11.82
2022-10-21T15:06:14.582Z,12.85
2022-10-21T15:08:44.477Z,12.73
2022-10-21T15:11:32.718Z,12.00
2022-10-21T15:14:07.308Z,11.15
2022-10-21T15:19:09.574Z,11.73
2022-10-21T15:21:41.318Z,11.70
2022-10-21T15:24:20.292Z,12.00
2022-10-21T15:26:51.733Z,12.53
2022-10-21T15:29:34.819Z,12.25
2022-10-21T15:32:03.414Z,13.70
2022-10-21T15:34:31.786Z,13.00
2022-10-21T15:37:01.129Z,14.15
2022-10-21T15:39:29.721Z,15.07
2022-10-21T15:41:58.945Z,15.33
2022-10-21T15:44:29.137Z,14.67
2022-10-21T15:47:00.740Z,13.33
2022-10-21T15:49:32.695Z,13.23
2022-10-21T15:52:02.001Z,13.27
2022-10-21T15:54:29.917Z,12.97
2022-10-21T15:57:00.301Z,16.33
2022-10-21T15:59:31.122Z,15.27
2022-10-21T16:02:00.513Z,15.00
2022-10-21T16:04:28.598Z,15.70
2022-10-21T16:06:56.723Z,14.40
2022-10-21T16:09:28.203Z,13.40
2022-10-21T16:12:00.459Z,11.40
2022-10-21T16:14:30.681Z,11.27
2022-10-21T16:17:00.391Z,12.03
2022-10-21T16:19:29.028Z,12.57
2022-10-21T16:21:57.544Z,11.65
2022-10-21T16:24:26.883Z,10.90
2022-10-21T16:26:54.859Z,11.10
2022-10-21T16:29:24.651Z,11.23
2022-10-21T16:31:53.082Z,10.60
2022-10-21T16:34:21.426Z,10.87
2022-10-21T16:36:49.447Z,11.03
2022-10-21T16:39:19.556Z,11.17
2022-10-21T16:41:49.152Z,10.57
2022-10-21T16:44:17.154Z,11.15
2022-10-21T16:46:51.314Z,12.27
2022-10-21T16:49:22.514Z,12.30
2022-10-21T16:51:52.395Z,13.57
2022-10-21T16:54:21.604Z,13.27
2022-10-21T16:56:53.375Z,12.60
2022-10-21T16:59:23.562Z,12.70
2022-10-21T17:01:51.943Z,12.17
2022-10-21T17:04:19.927Z,12.80
2022-10-21T17:06:47.870Z,12.53
2022-10-21T17:09:15.876Z,12.77
2022-10-21T17:11:44.578Z,12.70
2022-10-21T17:14:18.171Z,12.43
2022-10-21T17:16:46.355Z,12.20
2022-10-21T17:19:15.160Z,12.87
2022-10-21T17:21:43.746Z,12.00
2022-10-21T17:24:15.398Z,11.73
2022-10-21T17:26:43.513Z,11.77
2022-10-21T17:29:11.996Z,11.90
2022-10-21T17:31:42.797Z,12.13
2022-10-21T17:34:21.867Z,11.70
2022-10-21T17:36:49.816Z,11.33
2022-10-21T17:39:17.726Z,12.07
2022-10-21T17:44:18.912Z,12.13
2022-10-21T17:46:49.514Z,11.50
2022-10-21T17:49:17.532Z,12.10
2022-10-21T17:51:45.543Z,11.47
2022-10-21T17:54:13.497Z,12.10
2022-10-21T17:56:42.059Z,11.97
2022-10-21T17:59:10.150Z,12.10
2022-10-21T18:01:38.584Z,11.63
2022-10-21T18:04:07.901Z,10.37
2022-10-21T18:06:36.899Z,10.97
2022-10-21T18:09:06.702Z,11.40
2022-10-21T18:11:35.159Z,11.10
2022-10-21T18:14:03.222Z,10.53
2022-10-21T18:16:31.301Z,11.27
2022-10-21T18:19:02.036Z,11.10
2022-10-21T18:21:32.611Z,10.97
2022-10-21T18:24:00.708Z,11.27
2022-10-21T18:26:30.773Z,11.13
2022-10-21T18:29:01.450Z,10.43
2022-10-21T18:31:34.420Z,10.20
2022-10-21T18:34:05.006Z,11.03
2022-10-21T18:36:34.567Z,10.37
2022-10-21T18:39:02.872Z,10.77
2022-10-21T18:41:31.173Z,10.87
2022-10-21T18:44:01.397Z,10.90
2022-10-21T18:46:29.952Z,11.60
2022-10-21T18:48:58.171Z,11.73
2022-10-21T18:51:26.447Z,12.17
2022-10-21T18:53:55.783Z,13.00
2022-10-21T18:56:25.038Z,12.43
2022-10-21T18:58:53.740Z,12.47
2022-10-21T19:01:23.488Z,11.83
2022-10-21T19:03:54.685Z,12.40
2022-10-21T19:06:35.939Z,12.37
2022-10-21T19:09:07.876Z,12.83
2022-10-21T19:11:35.903Z,11.60
2022-10-21T19:14:04.026Z,12.60
2022-10-21T19:16:32.573Z,12.77
2022-10-21T19:19:00.514Z,12.57
2022-10-21T19:21:28.603Z,12.97
2022-10-21T19:23:59.854Z,13.57
2022-10-21T19:26:29.943Z,13.80
2022-10-21T19:29:01.122Z,13.47
2022-10-21T19:31:29.218Z,13.80
2022-10-21T19:33:57.207Z,13.70
2022-10-21T19:36:25.296Z,14.87
2022-10-21T19:38:53.252Z,15.30
2022-10-21T19:41:22.945Z,16.40
2022-10-21T19:43:52.768Z,15.13
2022-10-21T19:46:25.546Z,14.60
2022-10-21T19:48:54.339Z,14.53
2022-10-21T19:51:24.448Z,14.13
2022-10-21T19:53:53.415Z,13.97
2022-10-21T19:56:25.608Z,13.80
2022-10-21T19:58:56.643Z,14.20
2022-10-21T20:01:26.482Z,15.10
2022-10-21T20:03:56.008Z,15.23
2022-10-21T20:06:26.290Z,15.90
2022-10-21T20:08:55.657Z,15.80
2022-10-21T20:11:23.990Z,16.67
2022-10-21T20:13:52.363Z,17.13
2022-10-21T20:16:23.444Z,17.00
2022-10-21T20:18:51.939Z,17.37
2022-10-21T20:21:20.703Z,17.87
2022-10-21T20:23:48.655Z,15.87
2022-10-21T20:26:17.008Z,16.27
2022-10-21T20:28:44.999Z,15.13
2022-10-21T20:31:15.114Z,16.93
2022-10-21T20:33:46.331Z,17.53
2022-10-21T20:36:16.783Z,17.20
2022-10-21T20:38:44.898Z,16.50
2022-10-21T20:41:14.558Z,17.40
2022-10-21T20:43:43.789Z,16.13
2022-10-21T20:46:13.576Z,15.40
2022-10-21T20:48:42.733Z,15.10
2022-10-21T20:51:13.569Z,15.07
2022-10-21T20:53:45.370Z,15.13
2022-10-21T20:56:13.579Z,15.17
2022-10-21T20:58:42.796Z,14.47
2022-10-21T21:01:11.630Z,14.80
2022-10-21T21:03:41.829Z,15.10
2022-10-21T21:06:11.281Z,16.33
2022-10-21T21:08:48.814Z,14.87
2022-10-21T21:11:21.980Z,14.60
2022-10-21T21:13:49.956Z,14.90
2022-10-21T21:16:19.472Z,13.80
2022-10-21T21:18:53.005Z,13.40
2022-10-21T21:21:24.187Z,13.50
2022-10-21T21:23:52.691Z,11.73
2022-10-21T21:26:22.424Z,11.60
2022-10-21T21:28:51.765Z,13.00
2022-10-21T21:31:21.234Z,13.63
2022-10-21T21:33:49.310Z,12.33
2022-10-21T21:36:20.048Z,12.40
2022-10-21T21:38:50.291Z,11.80
2022-10-21T21:41:18.971Z,12.03
2022-10-21T21:43:48.041Z,11.30
2022-10-21T21:46:22.674Z,11.70
2022-10-21T21:48:54.181Z,11.40
2022-10-21T21:51:24.973Z,11.47
2022-10-21T21:53:55.091Z,11.27
2022-10-21T21:56:24.360Z,11.43
2022-10-21T21:58:54.973Z,11.73
2022-10-21T22:01:25.360Z,10.77
2022-10-21T22:03:54.209Z,11.27
2022-10-21T22:06:27.856Z,11.33
2022-10-21T22:08:57.923Z,11.13
2022-10-21T22:11:27.600Z,11.47
2022-10-21T22:13:55.591Z,10.57
2022-10-21T22:16:25.739Z,11.00
2022-10-21T22:18:54.549Z,11.60
2022-10-21T22:21:22.519Z,11.30
2022-10-21T22:23:51.315Z,12.30
2022-10-21T22:26:23.118Z,12.00
2022-10-21T22:28:51.116Z,11.87
2022-10-21T22:31:19.630Z,11.43
2022-10-21T22:33:47.657Z,11.20
2022-10-21T22:36:16.534Z,10.60
2022-10-21T22:38:45.341Z,12.73
2022-10-21T22:41:13.648Z,12.33
2022-10-21T22:43:43.791Z,12.27
2022-10-21T22:48:59.783Z,10.97
2022-10-21T22:51:27.724Z,10.40
2022-10-21T22:53:56.628Z,10.63
2022-10-21T22:56:24.960Z,10.57
2022-10-21T22:58:54.360Z,10.57
2022-10-21T23:01:24.049Z,10.20
2022-10-21T23:03:52.851Z,11.33
2022-10-21T23:06:20.816Z,10.30
2022-10-21T23:08:48.842Z,10.37
2022-10-21T23:11:16.910Z,10.63
2022-10-21T23:13:56.254Z,10.37
2022-10-21T23:16:32.396Z,10.13
2022-10-21T23:19:00.520Z,9.77
2022-10-21T23:21:29.040Z,10.00
2022-10-21T23:23:57.204Z,10.10
2022-10-21T23:26:25.189Z,9.93
2022-10-21T23:28:53.211Z,9.80
2022-10-21T23:31:21.323Z,9.50
2022-10-21T23:33:50.628Z,9.93
2022-10-21T23:36:18.765Z,10.10
2022-10-21T23:38:46.703Z,9.33
2022-10-21T23:41:14.771Z,9.57
2022-10-21T23:43:42.734Z,10.20
2022-10-21T23:46:10.649Z,9.73
2022-10-21T23:48:38.607Z,9.90
2022-10-21T23:51:08.004Z,10.33
2022-10-21T23:53:35.983Z,10.73
2022-10-21T23:56:04.214Z,10.67
2022-10-21T23:58:32.249Z,10.17
